createdAt,value
2023-03-31T00:02:13.217Z,79.96
2023-03-31T00:04:45.890Z,80.09
2023-03-31T00:07:14.958Z,80.58
2023-03-31T00:09:45.938Z,80.61
2023-03-31T00:12:14.132Z,80.52
2023-03-31T00:14:41.053Z,80.64
2023-03-31T00:17:08.202Z,80.96
2023-03-31T00:19:34.535Z,80.49
2023-03-31T00:22:05.215Z,80.49
2023-03-31T00:24:33.081Z,80.42
2023-03-31T00:27:00.540Z,80.31
2023-03-31T00:29:27.008Z,81.14
2023-03-31T00:31:53.899Z,81.08
2023-03-31T00:34:20.398Z,80.23
2023-03-31T00:36:49.635Z,80.19
2023-03-31T00:39:18.509Z,80.18
2023-03-31T00:41:45.349Z,79.73
2023-03-31T00:44:27.186Z,80.10
2023-03-31T00:46:58.755Z,80.37
2023-03-31T00:49:32.184Z,80.32
2023-03-31T00:52:07.391Z,80.92
2023-03-31T00:54:36.401Z,80.17
2023-03-31T00:57:06.634Z,80.32
2023-03-31T00:59:38.472Z,80.43
2023-03-31T01:02:04.945Z,81.03
2023-03-31T01:04:35.218Z,80.82
2023-03-31T01:07:16.733Z,80.99
2023-03-31T01:09:47.158Z,81.40
2023-03-31T01:12:16.898Z,81.12
2023-03-31T01:14:43.709Z,81.22
2023-03-31T01:17:10.525Z,81.42
2023-03-31T01:19:52.815Z,81.05
2023-03-31T01:22:46.032Z,81.96
2023-03-31T01:25:55.301Z,82.49
2023-03-31T01:28:36.891Z,83.64
2023-03-31T01:31:13.665Z,84.67
2023-03-31T01:34:01.268Z,85.87
2023-03-31T01:37:06.533Z,86.40
2023-03-31T01:39:46.091Z,86.60
2023-03-31T01:42:28.556Z,86.98
2023-03-31T01:45:12.245Z,87.24
2023-03-31T01:47:46.303Z,87.66
2023-03-31T01:50:28.534Z,88.39
2023-03-31T01:53:16.682Z,88.27
2023-03-31T01:55:53.012Z,88.68
2023-03-31T01:58:24.402Z,88.47
2023-03-31T02:01:08.449Z,88.79
2023-03-31T02:03:44.814Z,88.17
2023-03-31T02:06:21.878Z,88.62
2023-03-31T02:08:54.232Z,88.50
2023-03-31T02:11:22.031Z,88.79
2023-03-31T02:13:52.437Z,88.50
2023-03-31T02:16:24.906Z,89.46
2023-03-31T02:19:02.030Z,89.54
2023-03-31T02:21:33.049Z,89.35
2023-03-31T02:24:04.183Z,89.55
2023-03-31T02:26:37.566Z,89.97
2023-03-31T02:29:04.146Z,90.01
2023-03-31T02:31:41.386Z,89.84
2023-03-31T02:34:07.758Z,90.13
2023-03-31T02:36:35.319Z,90.11
2023-03-31T02:39:16.448Z,90.14
2023-03-31T02:41:43.055Z,90.66
2023-03-31T02:44:10.678Z,90.57
2023-03-31T02:46:38.018Z,90.32
2023-03-31T02:49:08.116Z,90.23
2023-03-31T02:51:49.504Z,90.37
2023-03-31T02:54:43.789Z,90.19
2023-03-31T02:57:54.543Z,90.91
2023-03-31T03:00:41.768Z,90.86
2023-03-31T03:03:14.458Z,90.44
2023-03-31T03:05:58.732Z,90.88
2023-03-31T03:09:03.740Z,89.98
2023-03-31T03:11:58.409Z,90.93
2023-03-31T03:14:39.624Z,90.05
2023-03-31T03:17:11.907Z,90.54
2023-03-31T03:19:38.367Z,90.42
2023-03-31T03:22:05.572Z,90.68
2023-03-31T03:24:34.285Z,90.68
2023-03-31T03:27:01.074Z,90.52
2023-03-31T03:29:27.856Z,90.89
2023-03-31T03:31:54.239Z,90.60
2023-03-31T03:34:20.545Z,90.86
2023-03-31T03:36:47.238Z,90.81
2023-03-31T03:39:13.705Z,90.55
2023-03-31T03:41:40.064Z,91.02
2023-03-31T03:44:06.442Z,90.50
2023-03-31T03:46:32.822Z,91.00
2023-03-31T03:48:59.162Z,91.13
2023-03-31T03:51:25.666Z,91.61
2023-03-31T03:53:52.046Z,91.33
2023-03-31T03:56:18.376Z,91.37
2023-03-31T03:58:44.720Z,91.31
2023-03-31T04:01:11.156Z,91.38
2023-03-31T04:03:37.473Z,91.62
2023-03-31T04:06:04.333Z,91.50
2023-03-31T04:08:30.918Z,91.35
2023-03-31T04:10:57.267Z,91.36
2023-03-31T04:13:23.597Z,91.27
2023-03-31T04:15:50.226Z,91.68
2023-03-31T04:18:25.515Z,91.20
2023-03-31T04:21:05.636Z,91.42
2023-03-31T04:23:33.326Z,91.50
2023-03-31T04:26:00.136Z,91.61
2023-03-31T04:28:26.643Z,91.45
2023-03-31T04:30:58.766Z,91.56
2023-03-31T04:33:25.098Z,91.58
2023-03-31T04:35:52.558Z,91.24
2023-03-31T04:38:21.137Z,90.94
2023-03-31T04:40:49.883Z,91.14
2023-03-31T04:43:18.019Z,90.86
2023-03-31T04:45:45.106Z,90.47
2023-03-31T04:48:12.057Z,90.34
2023-03-31T04:50:38.867Z,90.59
2023-03-31T04:53:06.021Z,91.02
2023-03-31T04:55:33.065Z,90.59
2023-03-31T04:57:59.731Z,90.78
2023-03-31T05:00:26.525Z,90.31
2023-03-31T05:02:53.047Z,90.27
2023-03-31T05:05:19.571Z,89.77
2023-03-31T05:07:46.141Z,89.68
2023-03-31T05:10:13.386Z,88.99
2023-03-31T05:12:39.962Z,88.85
2023-03-31T05:15:07.636Z,88.53
2023-03-31T05:17:35.606Z,88.49
2023-03-31T05:20:06.041Z,89.17
2023-03-31T05:22:35.618Z,89.18
2023-03-31T05:25:02.848Z,89.55
2023-03-31T05:27:29.296Z,89.42
2023-03-31T05:29:55.846Z,89.29
2023-03-31T05:32:22.305Z,89.64
2023-03-31T05:34:52.029Z,89.21
2023-03-31T05:37:20.335Z,88.93
2023-03-31T05:39:46.654Z,88.96
2023-03-31T05:42:13.025Z,89.00
2023-03-31T05:44:39.396Z,88.67
2023-03-31T05:47:05.976Z,88.96
2023-03-31T05:49:32.695Z,88.59
2023-03-31T05:51:59.044Z,88.56
2023-03-31T05:54:26.496Z,88.25
2023-03-31T05:56:52.957Z,88.30
2023-03-31T05:59:20.409Z,88.35
2023-03-31T06:01:47.196Z,87.85
2023-03-31T06:04:13.665Z,87.50
2023-03-31T06:06:40.005Z,87.39
2023-03-31T06:09:06.585Z,87.41
2023-03-31T06:11:32.914Z,86.75
2023-03-31T06:13:59.242Z,87.19
2023-03-31T06:16:26.129Z,86.49
2023-03-31T06:18:53.476Z,86.52
2023-03-31T06:21:21.527Z,86.84
2023-03-31T06:23:48.089Z,86.53
2023-03-31T06:26:17.502Z,86.67
2023-03-31T06:28:45.273Z,86.25
2023-03-31T06:31:14.140Z,86.17
2023-03-31T06:33:42.083Z,85.42
2023-03-31T06:36:09.843Z,85.69
2023-03-31T06:38:38.295Z,85.63
2023-03-31T06:41:06.383Z,85.38
2023-03-31T06:43:33.270Z,85.97
2023-03-31T06:45:59.971Z,86.00
2023-03-31T06:48:26.729Z,86.38
2023-03-31T06:50:54.492Z,86.81
2023-03-31T06:53:24.479Z,87.28
2023-03-31T06:55:51.053Z,87.34
2023-03-31T06:58:17.457Z,88.02
2023-03-31T07:00:45.940Z,88.47
2023-03-31T07:03:12.827Z,88.76
2023-03-31T07:05:39.569Z,89.43
2023-03-31T07:08:06.314Z,90.00
2023-03-31T07:10:32.986Z,89.84
2023-03-31T07:12:59.590Z,90.08
2023-03-31T07:15:28.164Z,90.34
2023-03-31T07:18:02.206Z,89.90
2023-03-31T07:20:30.353Z,90.52
2023-03-31T07:22:56.845Z,90.65
2023-03-31T07:25:23.433Z,90.51
2023-03-31T07:27:49.758Z,90.75
2023-03-31T07:30:19.309Z,90.87
2023-03-31T07:32:50.420Z,90.93
2023-03-31T07:35:18.317Z,90.92
2023-03-31T07:37:47.057Z,91.23
2023-03-31T07:40:16.000Z,91.38
2023-03-31T07:42:43.215Z,91.41
2023-03-31T07:45:10.295Z,91.67
2023-03-31T07:47:36.921Z,91.56
2023-03-31T07:50:03.499Z,91.27
2023-03-31T07:52:29.832Z,91.74
2023-03-31T07:54:56.331Z,91.76
2023-03-31T07:57:22.714Z,91.67
2023-03-31T07:59:49.448Z,92.07
2023-03-31T08:02:17.636Z,92.23
2023-03-31T08:04:44.976Z,92.70
2023-03-31T08:07:13.187Z,92.50
2023-03-31T08:09:40.190Z,92.59
2023-03-31T08:12:07.088Z,92.62
2023-03-31T08:14:40.549Z,92.34
2023-03-31T08:17:07.990Z,92.62
2023-03-31T08:19:34.350Z,92.71
2023-03-31T08:22:00.829Z,93.50
2023-03-31T08:24:27.162Z,93.60
2023-03-31T08:26:53.460Z,93.12
2023-03-31T08:29:19.936Z,92.83
2023-03-31T08:31:46.345Z,92.68
2023-03-31T08:34:12.742Z,92.61
2023-03-31T08:36:39.070Z,92.55
2023-03-31T08:39:06.310Z,92.38
2023-03-31T08:41:52.917Z,92.65
2023-03-31T08:44:29.220Z,92.00
2023-03-31T08:46:59.140Z,91.56
2023-03-31T08:49:26.972Z,91.61
2023-03-31T08:51:59.070Z,91.17
2023-03-31T08:54:33.787Z,90.88
2023-03-31T08:57:01.224Z,90.48
2023-03-31T08:59:33.042Z,91.08
2023-03-31T09:02:02.315Z,90.29
2023-03-31T09:04:58.862Z,90.16
2023-03-31T09:07:53.497Z,89.81
2023-03-31T09:10:35.237Z,90.16
2023-03-31T09:13:04.643Z,90.43
2023-03-31T09:15:43.375Z,90.44
2023-03-31T09:18:37.018Z,90.06
2023-03-31T09:21:18.780Z,89.80
2023-03-31T09:24:00.015Z,89.79
2023-03-31T09:26:34.093Z,89.89
2023-03-31T09:29:04.142Z,90.46
2023-03-31T09:31:31.773Z,90.38
2023-03-31T09:34:01.507Z,90.51
2023-03-31T09:36:28.619Z,90.10
2023-03-31T09:38:55.228Z,90.34
2023-03-31T09:41:21.745Z,90.37
2023-03-31T09:43:49.530Z,90.99
2023-03-31T09:46:33.160Z,90.98
2023-03-31T09:49:06.101Z,91.19
2023-03-31T09:51:37.101Z,90.82
2023-03-31T09:54:25.631Z,91.04
2023-03-31T09:56:55.164Z,90.87
2023-03-31T09:59:29.789Z,91.50
2023-03-31T10:02:00.446Z,90.96
2023-03-31T10:04:30.659Z,91.28
2023-03-31T10:06:59.003Z,92.04
2023-03-31T10:09:30.107Z,91.55
2023-03-31T10:12:02.322Z,91.48
2023-03-31T10:14:47.167Z,91.27
2023-03-31T10:17:19.367Z,91.33
2023-03-31T10:19:58.611Z,91.03
2023-03-31T10:22:32.301Z,91.58
2023-03-31T10:25:24.143Z,91.12
2023-03-31T10:27:55.179Z,90.75
2023-03-31T10:30:25.920Z,89.59
2023-03-31T10:32:54.540Z,88.84
2023-03-31T10:35:32.382Z,89.36
2023-03-31T10:38:06.117Z,88.96
2023-03-31T10:40:34.944Z,89.19
2023-03-31T10:43:12.346Z,89.78
2023-03-31T10:45:44.788Z,87.21
2023-03-31T10:48:39.588Z,86.64
2023-03-31T10:51:26.571Z,87.04
2023-03-31T10:53:55.333Z,85.94
2023-03-31T10:56:39.232Z,85.19
2023-03-31T10:59:43.333Z,86.06
2023-03-31T11:02:18.069Z,83.81
2023-03-31T11:05:15.180Z,83.17
2023-03-31T11:07:44.408Z,83.84
2023-03-31T11:10:44.834Z,83.52
2023-03-31T11:13:22.180Z,84.25
2023-03-31T11:16:05.125Z,84.34
2023-03-31T11:18:49.699Z,82.97
2023-03-31T11:21:34.839Z,82.80
2023-03-31T11:24:23.727Z,80.70
2023-03-31T11:27:16.514Z,83.28
2023-03-31T11:29:53.292Z,83.34
2023-03-31T11:32:33.734Z,83.67
2023-03-31T11:35:16.362Z,84.33
2023-03-31T11:38:18.353Z,84.71
2023-03-31T11:41:04.741Z,81.93
2023-03-31T11:43:41.928Z,84.41
2023-03-31T11:46:23.575Z,84.29
2023-03-31T11:49:01.396Z,81.76
2023-03-31T11:51:48.495Z,81.18
2023-03-31T11:54:24.417Z,77.39
2023-03-31T11:56:52.826Z,76.41
2023-03-31T11:59:21.316Z,77.69
2023-03-31T12:02:15.924Z,74.78
2023-03-31T12:04:56.368Z,73.33
2023-03-31T12:07:39.548Z,73.02
2023-03-31T12:10:06.116Z,72.77
2023-03-31T12:12:41.947Z,74.44
2023-03-31T12:15:19.314Z,76.34
2023-03-31T12:17:52.691Z,75.80
2023-03-31T12:20:31.441Z,76.14
2023-03-31T12:23:00.734Z,75.20
2023-03-31T12:25:40.439Z,73.93
2023-03-31T12:28:07.006Z,72.93
2023-03-31T12:30:42.208Z,72.29
2023-03-31T12:33:22.391Z,73.28
2023-03-31T12:36:09.919Z,72.62
2023-03-31T12:38:41.893Z,73.21
2023-03-31T12:41:08.277Z,74.11
2023-03-31T12:44:12.203Z,72.24
2023-03-31T12:47:00.423Z,75.01
2023-03-31T12:49:47.156Z,74.39
2023-03-31T12:52:42.888Z,73.38
2023-03-31T12:55:38.244Z,73.93
2023-03-31T12:58:34.026Z,73.72
2023-03-31T13:01:14.648Z,74.82
2023-03-31T13:04:09.055Z,74.58
2023-03-31T13:06:38.564Z,72.84
2023-03-31T13:09:14.080Z,75.62
2023-03-31T13:11:44.791Z,73.21
2023-03-31T13:14:23.510Z,73.83
2023-03-31T13:16:54.189Z,71.97
2023-03-31T13:19:32.171Z,70.49
2023-03-31T13:22:01.228Z,72.71
2023-03-31T13:24:30.004Z,71.56
2023-03-31T13:26:59.224Z,71.32
2023-03-31T13:29:39.785Z,70.32
2023-03-31T13:32:17.361Z,71.16
2023-03-31T13:35:06.878Z,71.51
2023-03-31T13:37:45.644Z,71.02
2023-03-31T13:40:30.752Z,71.30
2023-03-31T13:43:18.633Z,71.25
2023-03-31T13:46:06.495Z,71.15
2023-03-31T13:48:42.144Z,70.14
2023-03-31T13:51:14.684Z,69.60
2023-03-31T13:53:54.463Z,69.00
2023-03-31T13:56:33.928Z,66.77
2023-03-31T13:59:15.829Z,65.87
2023-03-31T14:01:59.689Z,65.15
2023-03-31T14:04:48.200Z,64.97
2023-03-31T14:07:50.289Z,65.44
2023-03-31T14:10:33.283Z,64.55
2023-03-31T14:13:10.717Z,64.16
2023-03-31T14:15:40.749Z,64.08
2023-03-31T14:18:08.544Z,63.74
2023-03-31T14:20:49.892Z,63.37
2023-03-31T14:23:34.752Z,62.46
2023-03-31T14:26:25.620Z,62.30
2023-03-31T14:29:03.444Z,62.55
2023-03-31T14:31:55.015Z,63.25
2023-03-31T14:34:44.800Z,63.60
2023-03-31T14:37:15.363Z,62.70
2023-03-31T14:39:45.913Z,62.66
2023-03-31T14:42:15.846Z,62.74
2023-03-31T14:44:46.914Z,63.05
2023-03-31T14:47:29.049Z,61.33
2023-03-31T14:50:07.696Z,62.67
2023-03-31T14:52:35.630Z,63.34
2023-03-31T14:55:02.054Z,63.58
2023-03-31T14:57:36.802Z,65.13
2023-03-31T15:00:08.251Z,67.72
2023-03-31T15:02:37.663Z,72.72
2023-03-31T15:05:07.526Z,76.95
2023-03-31T15:07:35.279Z,80.79
2023-03-31T15:10:03.221Z,80.86
2023-03-31T15:12:30.034Z,81.87
2023-03-31T15:15:07.138Z,81.47
2023-03-31T15:17:40.479Z,82.94
2023-03-31T15:20:37.377Z,82.49
2023-03-31T15:23:21.086Z,82.47
2023-03-31T15:25:47.616Z,82.80
2023-03-31T15:28:17.600Z,82.58
2023-03-31T15:30:47.614Z,82.48
2023-03-31T15:33:22.290Z,81.77
2023-03-31T15:35:49.131Z,81.87
2023-03-31T15:38:20.784Z,81.88
2023-03-31T15:40:54.648Z,80.52
2023-03-31T15:43:32.757Z,78.82
2023-03-31T15:46:00.772Z,77.60
2023-03-31T15:48:33.830Z,75.14
2023-03-31T15:51:21.671Z,74.94
2023-03-31T15:53:55.767Z,75.19
2023-03-31T15:56:36.064Z,75.00
2023-03-31T15:59:11.265Z,75.73
2023-03-31T16:01:43.993Z,75.34
2023-03-31T16:04:13.618Z,74.95
2023-03-31T16:06:52.579Z,75.45
2023-03-31T16:09:37.739Z,76.71
2023-03-31T16:12:10.902Z,75.97
2023-03-31T16:14:56.089Z,76.65
2023-03-31T16:17:29.073Z,76.44
2023-03-31T16:20:08.774Z,76.99
2023-03-31T16:22:41.599Z,76.37
2023-03-31T16:25:15.319Z,77.44
2023-03-31T16:27:46.602Z,76.47
2023-03-31T16:30:20.965Z,75.80
2023-03-31T16:33:03.112Z,75.79
2023-03-31T16:35:34.400Z,75.56
2023-03-31T16:38:01.812Z,75.03
2023-03-31T16:40:35.382Z,76.02
2023-03-31T16:43:16.804Z,77.03
2023-03-31T16:45:49.676Z,77.44
2023-03-31T16:48:17.811Z,77.95
2023-03-31T16:50:46.508Z,78.06
2023-03-31T16:53:14.842Z,78.91
2023-03-31T16:55:42.229Z,80.71
2023-03-31T16:58:08.854Z,80.97
2023-03-31T17:00:36.671Z,80.96
2023-03-31T17:03:04.863Z,81.92
2023-03-31T17:05:33.081Z,81.32
2023-03-31T17:08:00.214Z,80.15
2023-03-31T17:10:26.855Z,82.00
2023-03-31T17:12:53.237Z,80.19
2023-03-31T17:15:19.831Z,81.51
2023-03-31T17:17:47.663Z,80.71
2023-03-31T17:20:14.139Z,81.33
2023-03-31T17:22:40.552Z,80.92
2023-03-31T17:25:07.942Z,82.55
2023-03-31T17:27:35.059Z,82.78
2023-03-31T17:32:29.786Z,82.53
2023-03-31T17:34:56.460Z,82.86
2023-03-31T17:37:22.946Z,83.95
2023-03-31T17:39:49.373Z,84.14
2023-03-31T17:42:19.093Z,84.60
2023-03-31T17:44:46.327Z,85.83
2023-03-31T17:47:13.232Z,85.74
2023-03-31T17:49:39.581Z,85.83
2023-03-31T17:52:05.946Z,85.81
2023-03-31T17:54:32.450Z,86.18
2023-03-31T17:56:58.935Z,86.72
2023-03-31T17:59:25.337Z,87.15
2023-03-31T18:01:51.764Z,87.53
2023-03-31T18:04:18.274Z,87.81
2023-03-31T18:06:44.867Z,87.53
2023-03-31T18:09:11.662Z,88.25
2023-03-31T18:11:38.634Z,88.13
2023-03-31T18:14:05.049Z,88.38
2023-03-31T18:16:31.730Z,88.70
2023-03-31T18:18:58.217Z,88.53
2023-03-31T18:21:24.853Z,89.22
2023-03-31T18:23:52.607Z,89.68
2023-03-31T18:26:19.587Z,89.48
2023-03-31T18:28:45.950Z,89.51
2023-03-31T18:31:12.562Z,89.18
2023-03-31T18:33:40.083Z,89.35
2023-03-31T18:36:07.812Z,89.18
2023-03-31T18:38:36.708Z,88.68
2023-03-31T18:41:03.525Z,88.70
2023-03-31T18:43:31.931Z,87.86
2023-03-31T18:46:01.137Z,87.75
2023-03-31T18:48:27.652Z,87.29
2023-03-31T18:50:54.352Z,87.42
2023-03-31T18:53:22.365Z,87.46
2023-03-31T18:55:50.669Z,87.05
2023-03-31T18:58:17.350Z,87.47
2023-03-31T19:00:44.075Z,87.44
2023-03-31T19:03:11.006Z,87.57
2023-03-31T19:05:37.568Z,87.25
2023-03-31T19:08:04.481Z,87.34
2023-03-31T19:10:31.480Z,87.20
2023-03-31T19:12:58.494Z,86.79
2023-03-31T19:15:26.648Z,86.54
2023-03-31T19:17:53.166Z,85.87
2023-03-31T19:20:19.548Z,85.60
2023-03-31T19:22:49.274Z,84.96
2023-03-31T19:25:17.596Z,84.59
2023-03-31T19:27:45.058Z,84.76
2023-03-31T19:30:23.876Z,84.18
2023-03-31T19:32:50.712Z,83.97
2023-03-31T19:35:19.435Z,83.50
2023-03-31T19:37:46.727Z,83.67
2023-03-31T19:40:14.383Z,83.74
2023-03-31T19:42:41.995Z,84.02
2023-03-31T19:45:08.844Z,84.02
2023-03-31T19:47:35.414Z,83.89
2023-03-31T19:50:02.005Z,84.54
2023-03-31T19:52:28.871Z,84.69
2023-03-31T19:54:55.225Z,84.99
2023-03-31T19:57:21.700Z,85.17
2023-03-31T19:59:48.066Z,85.78
2023-03-31T20:02:14.587Z,86.34
2023-03-31T20:04:41.616Z,86.54
2023-03-31T20:07:08.628Z,87.03
2023-03-31T20:09:35.068Z,87.33
2023-03-31T20:12:01.449Z,87.69
2023-03-31T20:14:29.185Z,87.76
2023-03-31T20:16:55.995Z,88.15
2023-03-31T20:19:23.161Z,87.79
2023-03-31T20:21:54.116Z,88.48
2023-03-31T20:24:20.548Z,88.37
2023-03-31T20:26:47.556Z,88.43
2023-03-31T20:29:13.990Z,88.84
2023-03-31T20:31:41.657Z,89.05
2023-03-31T20:34:13.786Z,89.64
2023-03-31T20:36:42.153Z,90.10
2023-03-31T20:39:09.001Z,90.37
2023-03-31T20:41:40.056Z,91.30
2023-03-31T20:44:12.674Z,91.56
2023-03-31T20:46:41.489Z,91.46
2023-03-31T20:49:07.904Z,91.07
2023-03-31T20:51:37.358Z,91.47
2023-03-31T20:54:05.096Z,91.37
2023-03-31T20:56:33.183Z,91.22
2023-03-31T20:58:59.847Z,91.44
2023-03-31T21:01:28.436Z,91.44
2023-03-31T21:03:55.457Z,91.59
2023-03-31T21:06:21.932Z,91.35
2023-03-31T21:08:52.920Z,91.00
2023-03-31T21:11:19.327Z,91.16
2023-03-31T21:13:48.027Z,91.14
2023-03-31T21:16:15.880Z,91.21
2023-03-31T21:18:42.380Z,90.99
2023-03-31T21:21:12.260Z,91.31
2023-03-31T21:23:39.328Z,91.15
2023-03-31T21:26:07.612Z,91.08
2023-03-31T21:28:36.618Z,90.95
2023-03-31T21:31:06.790Z,91.05
2023-03-31T21:33:35.663Z,91.04
2023-03-31T21:36:02.199Z,91.11
2023-03-31T21:38:28.637Z,91.16
2023-03-31T21:40:58.149Z,91.00
2023-03-31T21:43:25.804Z,90.52
2023-03-31T21:45:53.318Z,90.73
2023-03-31T21:48:24.903Z,90.45
2023-03-31T21:50:52.573Z,90.83
2023-03-31T21:53:18.920Z,90.26
2023-03-31T21:55:45.274Z,90.25
2023-03-31T21:58:11.923Z,89.93
2023-03-31T22:00:38.297Z,89.67
2023-03-31T22:03:22.371Z,89.82
2023-03-31T22:05:51.509Z,89.67
2023-03-31T22:08:17.876Z,89.55
2023-03-31T22:10:48.397Z,89.30
2023-03-31T22:13:14.744Z,89.48
2023-03-31T22:15:43.721Z,89.30
2023-03-31T22:18:11.420Z,89.01
2023-03-31T22:20:38.493Z,88.91
2023-03-31T22:23:05.042Z,89.10
2023-03-31T22:25:31.905Z,89.00
2023-03-31T22:27:58.952Z,88.79
2023-03-31T22:30:25.415Z,88.99
2023-03-31T22:32:52.177Z,89.26
2023-03-31T22:35:18.589Z,89.37
2023-03-31T22:37:44.972Z,89.33
2023-03-31T22:40:11.465Z,89.84
2023-03-31T22:42:37.842Z,89.60
2023-03-31T22:45:04.763Z,89.54
2023-03-31T22:47:31.264Z,90.01
2023-03-31T22:49:57.638Z,90.39
2023-03-31T22:52:24.064Z,90.80
2023-03-31T22:54:50.863Z,90.71
2023-03-31T22:57:17.541Z,90.64
2023-03-31T22:59:43.917Z,90.78
2023-03-31T23:02:10.527Z,90.76
2023-03-31T23:04:36.962Z,91.03
2023-03-31T23:07:03.364Z,90.76
2023-03-31T23:09:29.772Z,90.99
2023-03-31T23:11:56.142Z,90.93
2023-03-31T23:14:22.739Z,91.21
2023-03-31T23:16:49.163Z,91.97
2023-03-31T23:19:15.614Z,91.71
2023-03-31T23:21:41.965Z,91.69
2023-03-31T23:24:09.530Z,91.46
2023-03-31T23:26:36.006Z,91.63
2023-03-31T23:29:02.573Z,91.38
2023-03-31T23:31:31.710Z,91.24
2023-03-31T23:33:59.499Z,91.25
2023-03-31T23:36:26.576Z,90.82
2023-03-31T23:38:55.455Z,90.73
2023-03-31T23:41:26.036Z,91.05
2023-03-31T23:43:53.522Z,90.94
2023-03-31T23:46:20.022Z,90.86
2023-03-31T23:48:46.378Z,90.85
2023-03-31T23:51:13.309Z,90.98
2023-03-31T23:53:39.736Z,91.00
2023-03-31T23:56:08.863Z,90.97
2023-03-31T23:58:35.697Z,91.23
